sensor_id;sensor_type;location;lat;lon;timestamp;P1;durP1;ratioP1;P2;durP2;ratioP2
73253;SDS011;61474;50.834;4.552;2022-08-14T00:00:18;3.58;;;3.00;;
73253;SDS011;61474;50.834;4.552;2022-08-14T00:02:45;5.15;;;3.58;;
73253;SDS011;61474;50.834;4.552;2022-08-14T00:05:13;3.75;;;2.60;;
73253;SDS011;61474;50.834;4.552;2022-08-14T00:07:41;4.93;;;3.60;;
73253;SDS011;61474;50.834;4.552;2022-08-14T00:10:08;5.95;;;3.85;;
73253;SDS011;61474;50.834;4.552;2022-08-14T00:12:38;3.38;;;2.78;;
73253;SDS011;61474;50.834;4.552;2022-08-14T00:15:08;6.82;;;3.55;;
73253;SDS011;61474;50.834;4.552;2022-08-14T00:17:45;4.40;;;2.92;;
73253;SDS011;61474;50.834;4.552;2022-08-14T00:20:12;5.80;;;2.95;;
73253;SDS011;61474;50.834;4.552;2022-08-14T00:22:38;4.68;;;3.35;;
73253;SDS011;61474;50.834;4.552;2022-08-14T00:25:05;4.38;;;3.15;;
73253;SDS011;61474;50.834;4.552;2022-08-14T00:27:32;5.50;;;3.63;;
73253;SDS011;61474;50.834;4.552;2022-08-14T00:29:57;5.25;;;3.83;;
73253;SDS011;61474;50.834;4.552;2022-08-14T00:32:23;3.65;;;2.85;;
73253;SDS011;61474;50.834;4.552;2022-08-14T00:34:48;3.92;;;3.00;;
73253;SDS011;61474;50.834;4.552;2022-08-14T00:37:14;5.50;;;3.25;;
73253;SDS011;61474;50.834;4.552;2022-08-14T00:39:39;4.63;;;3.72;;
73253;SDS011;61474;50.834;4.552;2022-08-14T00:42:05;4.38;;;3.65;;
73253;SDS011;61474;50.834;4.552;2022-08-14T00:44:31;3.67;;;2.88;;
73253;SDS011;61474;50.834;4.552;2022-08-14T00:46:57;4.53;;;3.67;;
73253;SDS011;61474;50.834;4.552;2022-08-14T00:49:23;4.35;;;3.40;;
73253;SDS011;61474;50.834;4.552;2022-08-14T00:51:49;3.08;;;2.42;;
73253;SDS011;61474;50.834;4.552;2022-08-14T00:54:15;3.92;;;2.67;;
73253;SDS011;61474;50.834;4.552;2022-08-14T00:56:42;3.42;;;3.03;;
73253;SDS011;61474;50.834;4.552;2022-08-14T00:59:09;4.53;;;4.13;;
73253;SDS011;61474;50.834;4.552;2022-08-14T01:01:35;7.55;;;3.70;;
73253;SDS011;61474;50.834;4.552;2022-08-14T01:04:03;5.35;;;3.63;;
73253;SDS011;61474;50.834;4.552;2022-08-14T01:06:29;4.28;;;3.45;;
73253;SDS011;61474;50.834;4.552;2022-08-14T01:08:57;5.13;;;3.42;;
73253;SDS011;61474;50.834;4.552;2022-08-14T01:11:24;4.93;;;3.35;;
73253;SDS011;61474;50.834;4.552;2022-08-14T01:13:50;3.55;;;3.25;;
73253;SDS011;61474;50.834;4.552;2022-08-14T01:16:23;5.35;;;2.83;;
73253;SDS011;61474;50.834;4.552;2022-08-14T01:18:49;6.03;;;3.78;;
73253;SDS011;61474;50.834;4.552;2022-08-14T01:21:34;4.40;;;3.75;;
73253;SDS011;61474;50.834;4.552;2022-08-14T01:24:01;12.73;;;4.05;;
73253;SDS011;61474;50.834;4.552;2022-08-14T01:26:28;6.07;;;4.35;;
73253;SDS011;61474;50.834;4.552;2022-08-14T01:28:54;3.63;;;3.22;;
73253;SDS011;61474;50.834;4.552;2022-08-14T01:31:28;4.63;;;3.45;;
73253;SDS011;61474;50.834;4.552;2022-08-14T01:33:57;4.82;;;4.13;;
73253;SDS011;61474;50.834;4.552;2022-08-14T01:36:26;4.30;;;3.60;;
73253;SDS011;61474;50.834;4.552;2022-08-14T01:38:54;4.72;;;3.88;;
73253;SDS011;61474;50.834;4.552;2022-08-14T01:41:24;4.40;;;3.78;;
73253;SDS011;61474;50.834;4.552;2022-08-14T01:43:56;6.57;;;3.60;;
73253;SDS011;61474;50.834;4.552;2022-08-14T01:46:25;4.15;;;3.70;;
73253;SDS011;61474;50.834;4.552;2022-08-14T01:48:56;6.03;;;3.72;;
73253;SDS011;61474;50.834;4.552;2022-08-14T01:51:23;6.30;;;3.45;;
73253;SDS011;61474;50.834;4.552;2022-08-14T01:53:53;5.63;;;3.58;;
73253;SDS011;61474;50.834;4.552;2022-08-14T01:56:21;4.22;;;3.17;;
73253;SDS011;61474;50.834;4.552;2022-08-14T01:58:59;4.30;;;3.53;;
73253;SDS011;61474;50.834;4.552;2022-08-14T02:01:25;4.93;;;3.85;;
73253;SDS011;61474;50.834;4.552;2022-08-14T02:03:51;5.30;;;3.92;;
73253;SDS011;61474;50.834;4.552;2022-08-14T02:06:16;6.25;;;4.00;;
73253;SDS011;61474;50.834;4.552;2022-08-14T02:08:42;4.93;;;3.40;;
73253;SDS011;61474;50.834;4.552;2022-08-14T02:11:09;3.92;;;3.15;;
73253;SDS011;61474;50.834;4.552;2022-08-14T02:13:44;4.22;;;3.28;;
73253;SDS011;61474;50.834;4.552;2022-08-14T02:16:12;5.55;;;3.05;;
73253;SDS011;61474;50.834;4.552;2022-08-14T02:18:40;4.07;;;3.47;;
73253;SDS011;61474;50.834;4.552;2022-08-14T02:21:06;8.07;;;3.15;;
73253;SDS011;61474;50.834;4.552;2022-08-14T02:23:33;5.82;;;4.00;;
73253;SDS011;61474;50.834;4.552;2022-08-14T02:25:59;5.05;;;3.85;;
73253;SDS011;61474;50.834;4.552;2022-08-14T02:28:27;3.90;;;3.45;;
73253;SDS011;61474;50.834;4.552;2022-08-14T02:30:54;5.80;;;4.25;;
73253;SDS011;61474;50.834;4.552;2022-08-14T02:33:21;4.85;;;3.67;;
73253;SDS011;61474;50.834;4.552;2022-08-14T02:35:47;4.55;;;3.60;;
73253;SDS011;61474;50.834;4.552;2022-08-14T02:38:13;5.95;;;3.58;;
73253;SDS011;61474;50.834;4.552;2022-08-14T02:40:39;5.90;;;4.30;;
73253;SDS011;61474;50.834;4.552;2022-08-14T02:43:04;3.88;;;3.42;;
73253;SDS011;61474;50.834;4.552;2022-08-14T02:45:31;4.53;;;3.88;;
73253;SDS011;61474;50.834;4.552;2022-08-14T02:47:58;4.15;;;3.47;;
73253;SDS011;61474;50.834;4.552;2022-08-14T02:50:28;4.30;;;3.55;;
73253;SDS011;61474;50.834;4.552;2022-08-14T02:52:54;5.55;;;4.45;;
73253;SDS011;61474;50.834;4.552;2022-08-14T02:55:19;6.93;;;4.30;;
73253;SDS011;61474;50.834;4.552;2022-08-14T02:57:47;5.03;;;3.88;;
73253;SDS011;61474;50.834;4.552;2022-08-14T03:00:18;5.45;;;3.70;;
73253;SDS011;61474;50.834;4.552;2022-08-14T03:02:46;4.55;;;3.35;;
73253;SDS011;61474;50.834;4.552;2022-08-14T03:05:14;5.30;;;3.45;;
73253;SDS011;61474;50.834;4.552;2022-08-14T03:07:41;4.15;;;3.42;;
73253;SDS011;61474;50.834;4.552;2022-08-14T03:10:08;5.85;;;3.85;;
73253;SDS011;61474;50.834;4.552;2022-08-14T03:12:34;4.90;;;3.78;;
73253;SDS011;61474;50.834;4.552;2022-08-14T03:15:00;5.43;;;3.88;;
73253;SDS011;61474;50.834;4.552;2022-08-14T03:17:34;4.78;;;3.75;;
73253;SDS011;61474;50.834;4.552;2022-08-14T03:20:00;4.82;;;4.05;;
73253;SDS011;61474;50.834;4.552;2022-08-14T03:22:27;5.10;;;4.10;;
73253;SDS011;61474;50.834;4.552;2022-08-14T03:24:53;5.70;;;4.13;;
73253;SDS011;61474;50.834;4.552;2022-08-14T03:27:19;6.53;;;4.47;;
73253;SDS011;61474;50.834;4.552;2022-08-14T03:29:44;4.05;;;3.35;;
73253;SDS011;61474;50.834;4.552;2022-08-14T03:32:10;6.22;;;4.10;;
73253;SDS011;61474;50.834;4.552;2022-08-14T03:34:36;5.68;;;4.45;;
73253;SDS011;61474;50.834;4.552;2022-08-14T03:37:02;4.78;;;4.13;;
73253;SDS011;61474;50.834;4.552;2022-08-14T03:39:28;5.72;;;4.53;;
73253;SDS011;61474;50.834;4.552;2022-08-14T03:41:54;5.03;;;4.30;;
73253;SDS011;61474;50.834;4.552;2022-08-14T03:44:20;5.00;;;4.28;;
73253;SDS011;61474;50.834;4.552;2022-08-14T03:46:47;4.85;;;4.22;;
73253;SDS011;61474;50.834;4.552;2022-08-14T03:49:13;4.82;;;4.10;;
73253;SDS011;61474;50.834;4.552;2022-08-14T03:51:47;7.28;;;4.32;;
73253;SDS011;61474;50.834;4.552;2022-08-14T03:54:13;4.15;;;3.70;;
73253;SDS011;61474;50.834;4.552;2022-08-14T03:56:39;7.18;;;4.72;;
73253;SDS011;61474;50.834;4.552;2022-08-14T03:59:09;6.78;;;4.40;;
73253;SDS011;61474;50.834;4.552;2022-08-14T04:01:35;5.72;;;4.75;;
73253;SDS011;61474;50.834;4.552;2022-08-14T04:04:04;5.93;;;4.82;;
73253;SDS011;61474;50.834;4.552;2022-08-14T04:06:32;5.20;;;4.10;;
73253;SDS011;61474;50.834;4.552;2022-08-14T04:08:59;5.55;;;4.93;;
73253;SDS011;61474;50.834;4.552;2022-08-14T04:11:24;6.78;;;5.25;;
73253;SDS011;61474;50.834;4.552;2022-08-14T04:13:51;6.57;;;5.35;;
73253;SDS011;61474;50.834;4.552;2022-08-14T04:16:17;6.72;;;5.50;;
73253;SDS011;61474;50.834;4.552;2022-08-14T04:18:46;5.22;;;4.72;;
73253;SDS011;61474;50.834;4.552;2022-08-14T04:21:13;5.97;;;5.28;;
73253;SDS011;61474;50.834;4.552;2022-08-14T04:23:39;6.25;;;4.93;;
73253;SDS011;61474;50.834;4.552;2022-08-14T04:26:09;7.22;;;4.88;;
73253;SDS011;61474;50.834;4.552;2022-08-14T04:28:37;6.63;;;5.13;;
73253;SDS011;61474;50.834;4.552;2022-08-14T04:31:04;5.88;;;5.07;;
73253;SDS011;61474;50.834;4.552;2022-08-14T04:33:30;6.47;;;4.70;;
73253;SDS011;61474;50.834;4.552;2022-08-14T04:35:56;6.65;;;5.53;;
73253;SDS011;61474;50.834;4.552;2022-08-14T04:38:22;7.82;;;5.75;;
73253;SDS011;61474;50.834;4.552;2022-08-14T04:41:06;8.02;;;7.03;;
73253;SDS011;61474;50.834;4.552;2022-08-14T04:43:51;7.28;;;6.57;;
73253;SDS011;61474;50.834;4.552;2022-08-14T04:46:19;7.90;;;6.82;;
73253;SDS011;61474;50.834;4.552;2022-08-14T04:48:46;6.93;;;6.22;;
73253;SDS011;61474;50.834;4.552;2022-08-14T04:51:13;7.65;;;5.68;;
73253;SDS011;61474;50.834;4.552;2022-08-14T04:53:43;7.03;;;6.35;;
73253;SDS011;61474;50.834;4.552;2022-08-14T04:56:11;7.20;;;5.75;;
73253;SDS011;61474;50.834;4.552;2022-08-14T04:58:39;6.70;;;6.00;;
73253;SDS011;61474;50.834;4.552;2022-08-14T05:01:07;8.63;;;7.68;;
73253;SDS011;61474;50.834;4.552;2022-08-14T05:03:34;7.93;;;6.45;;
73253;SDS011;61474;50.834;4.552;2022-08-14T05:06:02;10.25;;;8.30;;
73253;SDS011;61474;50.834;4.552;2022-08-14T05:08:30;10.90;;;8.63;;
73253;SDS011;61474;50.834;4.552;2022-08-14T05:10:57;9.43;;;7.15;;
73253;SDS011;61474;50.834;4.552;2022-08-14T05:13:25;11.48;;;8.00;;
73253;SDS011;61474;50.834;4.552;2022-08-14T05:15:53;12.25;;;7.85;;
73253;SDS011;61474;50.834;4.552;2022-08-14T05:18:32;8.40;;;6.60;;
73253;SDS011;61474;50.834;4.552;2022-08-14T05:21:00;8.52;;;6.97;;
73253;SDS011;61474;50.834;4.552;2022-08-14T05:23:28;9.18;;;7.10;;
73253;SDS011;61474;50.834;4.552;2022-08-14T05:25:57;11.77;;;7.65;;
73253;SDS011;61474;50.834;4.552;2022-08-14T05:28:28;7.55;;;6.30;;
73253;SDS011;61474;50.834;4.552;2022-08-14T05:31:04;10.48;;;7.95;;
73253;SDS011;61474;50.834;4.552;2022-08-14T05:33:31;8.80;;;7.93;;
73253;SDS011;61474;50.834;4.552;2022-08-14T05:35:59;11.95;;;8.07;;
73253;SDS011;61474;50.834;4.552;2022-08-14T05:38:30;10.65;;;7.00;;
73253;SDS011;61474;50.834;4.552;2022-08-14T05:41:10;9.77;;;8.77;;
73253;SDS011;61474;50.834;4.552;2022-08-14T05:43:37;18.02;;;9.60;;
73253;SDS011;61474;50.834;4.552;2022-08-14T05:46:04;13.40;;;8.48;;
73253;SDS011;61474;50.834;4.552;2022-08-14T05:48:31;13.13;;;8.60;;
73253;SDS011;61474;50.834;4.552;2022-08-14T05:50:57;9.35;;;8.45;;
73253;SDS011;61474;50.834;4.552;2022-08-14T05:53:23;9.23;;;8.23;;
73253;SDS011;61474;50.834;4.552;2022-08-14T05:55:50;10.82;;;8.20;;
73253;SDS011;61474;50.834;4.552;2022-08-14T05:58:17;8.63;;;7.70;;
73253;SDS011;61474;50.834;4.552;2022-08-14T06:00:43;9.98;;;8.95;;
73253;SDS011;61474;50.834;4.552;2022-08-14T06:03:10;16.83;;;9.77;;
73253;SDS011;61474;50.834;4.552;2022-08-14T06:05:41;10.40;;;9.43;;
73253;SDS011;61474;50.834;4.552;2022-08-14T06:08:15;10.95;;;9.07;;
73253;SDS011;61474;50.834;4.552;2022-08-14T06:10:42;12.10;;;9.02;;
73253;SDS011;61474;50.834;4.552;2022-08-14T06:13:08;10.70;;;9.60;;
73253;SDS011;61474;50.834;4.552;2022-08-14T06:15:34;20.35;;;11.32;;
73253;SDS011;61474;50.834;4.552;2022-08-14T06:17:59;9.30;;;8.40;;
73253;SDS011;61474;50.834;4.552;2022-08-14T06:20:25;11.27;;;8.75;;
73253;SDS011;61474;50.834;4.552;2022-08-14T06:22:52;11.20;;;10.05;;
73253;SDS011;61474;50.834;4.552;2022-08-14T06:25:17;10.02;;;9.02;;
73253;SDS011;61474;50.834;4.552;2022-08-14T06:27:44;10.13;;;9.13;;
73253;SDS011;61474;50.834;4.552;2022-08-14T06:30:15;9.65;;;8.75;;
73253;SDS011;61474;50.834;4.552;2022-08-14T06:32:42;12.43;;;9.32;;
73253;SDS011;61474;50.834;4.552;2022-08-14T06:35:09;10.02;;;9.05;;
73253;SDS011;61474;50.834;4.552;2022-08-14T06:40:08;11.60;;;8.80;;
73253;SDS011;61474;50.834;4.552;2022-08-14T06:42:35;8.80;;;7.97;;
73253;SDS011;61474;50.834;4.552;2022-08-14T06:45:01;9.43;;;8.38;;
73253;SDS011;61474;50.834;4.552;2022-08-14T06:47:27;10.57;;;8.25;;
73253;SDS011;61474;50.834;4.552;2022-08-14T06:49:52;9.60;;;8.63;;
73253;SDS011;61474;50.834;4.552;2022-08-14T06:52:18;8.90;;;8.00;;
73253;SDS011;61474;50.834;4.552;2022-08-14T06:54:44;10.60;;;9.60;;
73253;SDS011;61474;50.834;4.552;2022-08-14T06:57:10;9.40;;;8.27;;
73253;SDS011;61474;50.834;4.552;2022-08-14T06:59:36;11.18;;;9.25;;
73253;SDS011;61474;50.834;4.552;2022-08-14T07:02:01;8.55;;;7.47;;
73253;SDS011;61474;50.834;4.552;2022-08-14T07:04:45;10.15;;;8.85;;
73253;SDS011;61474;50.834;4.552;2022-08-14T07:07:36;9.20;;;7.90;;
73253;SDS011;61474;50.834;4.552;2022-08-14T07:10:04;10.40;;;8.57;;
73253;SDS011;61474;50.834;4.552;2022-08-14T07:12:30;9.82;;;6.90;;
73253;SDS011;61474;50.834;4.552;2022-08-14T07:14:55;8.85;;;7.55;;
73253;SDS011;61474;50.834;4.552;2022-08-14T07:17:21;9.15;;;8.25;;
73253;SDS011;61474;50.834;4.552;2022-08-14T07:19:46;8.88;;;7.97;;
73253;SDS011;61474;50.834;4.552;2022-08-14T07:22:12;9.13;;;6.55;;
73253;SDS011;61474;50.834;4.552;2022-08-14T07:24:38;8.50;;;6.88;;
73253;SDS011;61474;50.834;4.552;2022-08-14T07:27:03;8.68;;;7.85;;
73253;SDS011;61474;50.834;4.552;2022-08-14T07:29:29;9.30;;;7.75;;
73253;SDS011;61474;50.834;4.552;2022-08-14T07:31:55;6.85;;;6.22;;
73253;SDS011;61474;50.834;4.552;2022-08-14T07:34:20;9.63;;;7.60;;
73253;SDS011;61474;50.834;4.552;2022-08-14T07:36:47;7.78;;;7.03;;
73253;SDS011;61474;50.834;4.552;2022-08-14T07:39:13;9.32;;;7.80;;
73253;SDS011;61474;50.834;4.552;2022-08-14T07:41:39;11.35;;;7.35;;
73253;SDS011;61474;50.834;4.552;2022-08-14T07:44:05;6.47;;;5.72;;
73253;SDS011;61474;50.834;4.552;2022-08-14T07:46:31;6.57;;;5.97;;
73253;SDS011;61474;50.834;4.552;2022-08-14T07:48:57;8.32;;;6.80;;
73253;SDS011;61474;50.834;4.552;2022-08-14T07:51:23;8.05;;;6.25;;
73253;SDS011;61474;50.834;4.552;2022-08-14T07:53:48;7.78;;;7.07;;
73253;SDS011;61474;50.834;4.552;2022-08-14T07:56:15;12.43;;;7.00;;
73253;SDS011;61474;50.834;4.552;2022-08-14T07:58:41;6.55;;;5.43;;
73253;SDS011;61474;50.834;4.552;2022-08-14T08:01:07;8.48;;;6.85;;
73253;SDS011;61474;50.834;4.552;2022-08-14T08:03:35;6.68;;;6.00;;
73253;SDS011;61474;50.834;4.552;2022-08-14T08:06:02;8.25;;;6.07;;
73253;SDS011;61474;50.834;4.552;2022-08-14T08:08:29;8.50;;;6.28;;
73253;SDS011;61474;50.834;4.552;2022-08-14T08:10:55;7.03;;;6.05;;
73253;SDS011;61474;50.834;4.552;2022-08-14T08:13:21;8.02;;;7.22;;
73253;SDS011;61474;50.834;4.552;2022-08-14T08:15:51;7.13;;;6.05;;
73253;SDS011;61474;50.834;4.552;2022-08-14T08:18:18;7.43;;;6.22;;
73253;SDS011;61474;50.834;4.552;2022-08-14T08:20:46;7.10;;;5.93;;
73253;SDS011;61474;50.834;4.552;2022-08-14T08:23:14;9.63;;;6.30;;
73253;SDS011;61474;50.834;4.552;2022-08-14T08:25:42;9.38;;;6.05;;
73253;SDS011;61474;50.834;4.552;2022-08-14T08:30:37;8.10;;;6.43;;
73253;SDS011;61474;50.834;4.552;2022-08-14T08:33:05;6.80;;;6.07;;
73253;SDS011;61474;50.834;4.552;2022-08-14T08:35:32;6.88;;;6.20;;
73253;SDS011;61474;50.834;4.552;2022-08-14T08:38:00;6.93;;;6.20;;
73253;SDS011;61474;50.834;4.552;2022-08-14T08:40:30;6.18;;;4.82;;
73253;SDS011;61474;50.834;4.552;2022-08-14T08:43:00;6.88;;;6.18;;
73253;SDS011;61474;50.834;4.552;2022-08-14T08:45:30;6.03;;;5.45;;
73253;SDS011;61474;50.834;4.552;2022-08-14T08:47:57;6.40;;;5.80;;
73253;SDS011;61474;50.834;4.552;2022-08-14T08:52:54;6.20;;;5.60;;
73253;SDS011;61474;50.834;4.552;2022-08-14T08:55:27;6.68;;;5.95;;
73253;SDS011;61474;50.834;4.552;2022-08-14T08:57:58;7.60;;;5.82;;
73253;SDS011;61474;50.834;4.552;2022-08-14T09:00:29;6.88;;;6.10;;
73253;SDS011;61474;50.834;4.552;2022-08-14T09:03:14;6.28;;;5.68;;
73253;SDS011;61474;50.834;4.552;2022-08-14T09:08:20;7.88;;;5.60;;
73253;SDS011;61474;50.834;4.552;2022-08-14T09:10:51;7.35;;;5.60;;
73253;SDS011;61474;50.834;4.552;2022-08-14T09:13:18;5.03;;;4.53;;
73253;SDS011;61474;50.834;4.552;2022-08-14T09:15:45;6.72;;;5.35;;
73253;SDS011;61474;50.834;4.552;2022-08-14T09:18:13;5.90;;;5.28;;
73253;SDS011;61474;50.834;4.552;2022-08-14T09:20:40;6.57;;;5.57;;
73253;SDS011;61474;50.834;4.552;2022-08-14T09:23:08;4.95;;;3.92;;
73253;SDS011;61474;50.834;4.552;2022-08-14T09:25:35;6.32;;;5.72;;
73253;SDS011;61474;50.834;4.552;2022-08-14T09:28:02;5.30;;;4.57;;
73253;SDS011;61474;50.834;4.552;2022-08-14T09:30:29;5.93;;;4.93;;
73253;SDS011;61474;50.834;4.552;2022-08-14T09:35:33;8.40;;;4.90;;
73253;SDS011;61474;50.834;4.552;2022-08-14T09:44:38;5.13;;;4.63;;
73253;SDS011;61474;50.834;4.552;2022-08-14T09:47:11;5.53;;;4.25;;
73253;SDS011;61474;50.834;4.552;2022-08-14T09:49:39;5.53;;;3.78;;
73253;SDS011;61474;50.834;4.552;2022-08-14T09:52:07;6.95;;;4.72;;
73253;SDS011;61474;50.834;4.552;2022-08-14T09:54:44;6.32;;;4.28;;
73253;SDS011;61474;50.834;4.552;2022-08-14T09:57:23;4.95;;;4.28;;
73253;SDS011;61474;50.834;4.552;2022-08-14T09:59:50;6.07;;;5.03;;
73253;SDS011;61474;50.834;4.552;2022-08-14T10:02:29;4.40;;;3.90;;
73253;SDS011;61474;50.834;4.552;2022-08-14T10:07:34;4.70;;;4.10;;
73253;SDS011;61474;50.834;4.552;2022-08-14T10:10:02;5.68;;;4.38;;
73253;SDS011;61474;50.834;4.552;2022-08-14T10:12:46;4.53;;;3.83;;
73253;SDS011;61474;50.834;4.552;2022-08-14T10:15:16;5.60;;;4.00;;
73253;SDS011;61474;50.834;4.552;2022-08-14T10:17:43;4.50;;;3.72;;
73253;SDS011;61474;50.834;4.552;2022-08-14T10:20:10;5.13;;;4.63;;
73253;SDS011;61474;50.834;4.552;2022-08-14T10:22:37;3.95;;;3.55;;
73253;SDS011;61474;50.834;4.552;2022-08-14T10:25:10;5.68;;;4.15;;
73253;SDS011;61474;50.834;4.552;2022-08-14T10:27:40;7.65;;;4.45;;
73253;SDS011;61474;50.834;4.552;2022-08-14T10:30:12;5.13;;;4.00;;
73253;SDS011;61474;50.834;4.552;2022-08-14T10:32:43;3.92;;;3.50;;
73253;SDS011;61474;50.834;4.552;2022-08-14T10:35:11;4.32;;;3.75;;
73253;SDS011;61474;50.834;4.552;2022-08-14T10:37:47;4.63;;;3.35;;
73253;SDS011;61474;50.834;4.552;2022-08-14T10:40:15;5.00;;;4.10;;
73253;SDS011;61474;50.834;4.552;2022-08-14T10:42:52;4.10;;;3.38;;
73253;SDS011;61474;50.834;4.552;2022-08-14T10:45:19;5.05;;;3.33;;
73253;SDS011;61474;50.834;4.552;2022-08-14T10:47:49;5.93;;;3.55;;
73253;SDS011;61474;50.834;4.552;2022-08-14T10:50:16;4.57;;;3.85;;
73253;SDS011;61474;50.834;4.552;2022-08-14T10:52:57;4.97;;;3.42;;
73253;SDS011;61474;50.834;4.552;2022-08-14T10:55:33;5.00;;;4.50;;
73253;SDS011;61474;50.834;4.552;2022-08-14T10:58:04;3.95;;;3.47;;
73253;SDS011;61474;50.834;4.552;2022-08-14T11:00:38;7.15;;;3.92;;
73253;SDS011;61474;50.834;4.552;2022-08-14T11:03:06;4.95;;;3.72;;
73253;SDS011;61474;50.834;4.552;2022-08-14T11:08:07;4.60;;;3.42;;
73253;SDS011;61474;50.834;4.552;2022-08-14T11:10:38;3.45;;;2.95;;
73253;SDS011;61474;50.834;4.552;2022-08-14T11:13:06;4.72;;;3.38;;
73253;SDS011;61474;50.834;4.552;2022-08-14T11:15:32;4.90;;;3.55;;
73253;SDS011;61474;50.834;4.552;2022-08-14T11:17:59;3.45;;;3.00;;
73253;SDS011;61474;50.834;4.552;2022-08-14T11:20:25;4.43;;;3.40;;
73253;SDS011;61474;50.834;4.552;2022-08-14T11:22:54;3.08;;;2.47;;
73253;SDS011;61474;50.834;4.552;2022-08-14T11:25:22;3.42;;;2.80;;
73253;SDS011;61474;50.834;4.552;2022-08-14T11:27:50;3.67;;;2.97;;
73253;SDS011;61474;50.834;4.552;2022-08-14T11:30:19;3.78;;;3.38;;
73253;SDS011;61474;50.834;4.552;2022-08-14T11:32:46;4.72;;;3.60;;
73253;SDS011;61474;50.834;4.552;2022-08-14T11:35:14;4.43;;;2.95;;
73253;SDS011;61474;50.834;4.552;2022-08-14T11:37:48;3.45;;;2.63;;
73253;SDS011;61474;50.834;4.552;2022-08-14T11:40:26;4.95;;;3.10;;
73253;SDS011;61474;50.834;4.552;2022-08-14T11:42:54;3.88;;;3.03;;
73253;SDS011;61474;50.834;4.552;2022-08-14T11:45:22;3.63;;;3.10;;
73253;SDS011;61474;50.834;4.552;2022-08-14T11:47:49;3.42;;;2.65;;
73253;SDS011;61474;50.834;4.552;2022-08-14T11:50:17;3.78;;;3.20;;
73253;SDS011;61474;50.834;4.552;2022-08-14T11:52:46;3.30;;;2.65;;
73253;SDS011;61474;50.834;4.552;2022-08-14T11:55:12;7.35;;;2.17;;
73253;SDS011;61474;50.834;4.552;2022-08-14T11:57:39;4.05;;;3.38;;
73253;SDS011;61474;50.834;4.552;2022-08-14T12:00:07;3.95;;;2.85;;
73253;SDS011;61474;50.834;4.552;2022-08-14T12:02:47;4.22;;;3.00;;
73253;SDS011;61474;50.834;4.552;2022-08-14T12:05:27;4.55;;;3.05;;
73253;SDS011;61474;50.834;4.552;2022-08-14T12:07:54;4.70;;;3.67;;
73253;SDS011;61474;50.834;4.552;2022-08-14T12:10:21;3.22;;;2.83;;
73253;SDS011;61474;50.834;4.552;2022-08-14T12:12:47;4.05;;;3.53;;
73253;SDS011;61474;50.834;4.552;2022-08-14T12:15:15;3.70;;;3.08;;
73253;SDS011;61474;50.834;4.552;2022-08-14T12:17:53;3.65;;;2.97;;
73253;SDS011;61474;50.834;4.552;2022-08-14T12:20:18;3.75;;;2.75;;
73253;SDS011;61474;50.834;4.552;2022-08-14T12:22:53;4.47;;;3.58;;
73253;SDS011;61474;50.834;4.552;2022-08-14T12:25:20;4.93;;;3.63;;
73253;SDS011;61474;50.834;4.552;2022-08-14T12:27:47;4.15;;;3.10;;
73253;SDS011;61474;50.834;4.552;2022-08-14T12:30:26;3.58;;;3.13;;
73253;SDS011;61474;50.834;4.552;2022-08-14T12:32:53;4.70;;;3.28;;
73253;SDS011;61474;50.834;4.552;2022-08-14T12:35:20;4.15;;;3.10;;
73253;SDS011;61474;50.834;4.552;2022-08-14T12:37:48;3.25;;;2.90;;
73253;SDS011;61474;50.834;4.552;2022-08-14T12:40:15;3.20;;;2.72;;
73253;SDS011;61474;50.834;4.552;2022-08-14T12:42:42;3.85;;;3.25;;
73253;SDS011;61474;50.834;4.552;2022-08-14T12:45:09;4.05;;;2.58;;
73253;SDS011;61474;50.834;4.552;2022-08-14T12:47:37;3.85;;;2.75;;
73253;SDS011;61474;50.834;4.552;2022-08-14T12:50:04;5.03;;;2.88;;
73253;SDS011;61474;50.834;4.552;2022-08-14T12:52:35;4.07;;;3.25;;
73253;SDS011;61474;50.834;4.552;2022-08-14T12:55:07;4.13;;;2.80;;
73253;SDS011;61474;50.834;4.552;2022-08-14T12:57:45;4.25;;;3.53;;
73253;SDS011;61474;50.834;4.552;2022-08-14T13:02:43;4.72;;;3.30;;
73253;SDS011;61474;50.834;4.552;2022-08-14T13:05:10;3.00;;;2.47;;
73253;SDS011;61474;50.834;4.552;2022-08-14T13:07:38;3.83;;;2.92;;
73253;SDS011;61474;50.834;4.552;2022-08-14T13:10:06;3.70;;;3.20;;
73253;SDS011;61474;50.834;4.552;2022-08-14T13:12:34;3.50;;;2.65;;
73253;SDS011;61474;50.834;4.552;2022-08-14T13:15:03;3.90;;;3.13;;
73253;SDS011;61474;50.834;4.552;2022-08-14T13:17:31;3.05;;;2.53;;
73253;SDS011;61474;50.834;4.552;2022-08-14T13:20:00;6.03;;;3.50;;
73253;SDS011;61474;50.834;4.552;2022-08-14T13:22:26;4.80;;;3.00;;
73253;SDS011;61474;50.834;4.552;2022-08-14T13:24:53;4.38;;;2.95;;
73253;SDS011;61474;50.834;4.552;2022-08-14T13:27:22;4.43;;;2.85;;
73253;SDS011;61474;50.834;4.552;2022-08-14T13:29:51;4.28;;;2.72;;
73253;SDS011;61474;50.834;4.552;2022-08-14T13:32:23;3.30;;;3.00;;
73253;SDS011;61474;50.834;4.552;2022-08-14T13:34:49;5.57;;;3.55;;
73253;SDS011;61474;50.834;4.552;2022-08-14T13:37:16;3.38;;;2.97;;
73253;SDS011;61474;50.834;4.552;2022-08-14T13:39:48;5.15;;;2.83;;
73253;SDS011;61474;50.834;4.552;2022-08-14T13:42:17;4.03;;;3.35;;
73253;SDS011;61474;50.834;4.552;2022-08-14T13:44:50;4.00;;;3.15;;
73253;SDS011;61474;50.834;4.552;2022-08-14T13:47:18;3.70;;;3.40;;
73253;SDS011;61474;50.834;4.552;2022-08-14T13:49:47;4.45;;;3.35;;
73253;SDS011;61474;50.834;4.552;2022-08-14T13:52:15;4.00;;;2.88;;
73253;SDS011;61474;50.834;4.552;2022-08-14T13:54:46;4.20;;;3.20;;
73253;SDS011;61474;50.834;4.552;2022-08-14T13:57:14;3.83;;;3.10;;
73253;SDS011;61474;50.834;4.552;2022-08-14T13:59:47;3.15;;;2.33;;
73253;SDS011;61474;50.834;4.552;2022-08-14T14:02:14;3.72;;;3.33;;
73253;SDS011;61474;50.834;4.552;2022-08-14T14:04:43;3.55;;;2.80;;
73253;SDS011;61474;50.834;4.552;2022-08-14T14:07:11;4.10;;;2.58;;
73253;SDS011;61474;50.834;4.552;2022-08-14T14:09:40;4.32;;;2.78;;
73253;SDS011;61474;50.834;4.552;2022-08-14T14:12:08;9.07;;;3.20;;
73253;SDS011;61474;50.834;4.552;2022-08-14T14:14:35;4.57;;;3.28;;
73253;SDS011;61474;50.834;4.552;2022-08-14T14:17:02;4.57;;;3.72;;
73253;SDS011;61474;50.834;4.552;2022-08-14T14:19:28;4.05;;;3.50;;
73253;SDS011;61474;50.834;4.552;2022-08-14T14:21:57;3.47;;;2.85;;
73253;SDS011;61474;50.834;4.552;2022-08-14T14:24:29;3.40;;;2.75;;
73253;SDS011;61474;50.834;4.552;2022-08-14T14:26:56;3.75;;;3.35;;
73253;SDS011;61474;50.834;4.552;2022-08-14T14:29:25;6.32;;;3.42;;
73253;SDS011;61474;50.834;4.552;2022-08-14T14:31:53;3.35;;;2.65;;
73253;SDS011;61474;50.834;4.552;2022-08-14T14:34:23;5.25;;;2.90;;
73253;SDS011;61474;50.834;4.552;2022-08-14T14:36:50;7.22;;;2.50;;
73253;SDS011;61474;50.834;4.552;2022-08-14T14:39:19;4.47;;;2.92;;
73253;SDS011;61474;50.834;4.552;2022-08-14T14:41:50;3.83;;;2.47;;
73253;SDS011;61474;50.834;4.552;2022-08-14T14:44:21;4.78;;;3.05;;
73253;SDS011;61474;50.834;4.552;2022-08-14T14:46:48;5.05;;;2.72;;
73253;SDS011;61474;50.834;4.552;2022-08-14T14:49:14;5.15;;;3.03;;
73253;SDS011;61474;50.834;4.552;2022-08-14T14:51:43;3.58;;;2.97;;
73253;SDS011;61474;50.834;4.552;2022-08-14T14:54:10;4.13;;;3.30;;
73253;SDS011;61474;50.834;4.552;2022-08-14T14:56:37;4.25;;;3.60;;
73253;SDS011;61474;50.834;4.552;2022-08-14T14:59:04;4.00;;;3.42;;
73253;SDS011;61474;50.834;4.552;2022-08-14T15:01:31;3.60;;;2.75;;
73253;SDS011;61474;50.834;4.552;2022-08-14T15:04:00;3.55;;;2.80;;
73253;SDS011;61474;50.834;4.552;2022-08-14T15:06:28;3.65;;;2.72;;
73253;SDS011;61474;50.834;4.552;2022-08-14T15:08:55;4.80;;;3.00;;
73253;SDS011;61474;50.834;4.552;2022-08-14T15:11:21;3.70;;;3.10;;
73253;SDS011;61474;50.834;4.552;2022-08-14T15:13:47;3.88;;;3.30;;
73253;SDS011;61474;50.834;4.552;2022-08-14T15:16:12;3.78;;;3.00;;
73253;SDS011;61474;50.834;4.552;2022-08-14T15:18:38;3.53;;;2.88;;